<?xml version="1.0" encoding="UTF-8" standalone="no" ?>
<gpx xmlns="http://www.topografix.com/GPX/1/1" xmlns:xsi="http://www.w3.org/2001/XMLSchema-instance" xsi:schemaLocation="http://www.topografix.com/GPX/1/1 http://www.topografix.com/GPX/1/1/gpx.xsd" version="1.1" creator="VisuGPX - https://www.visugpx.com">
  <metadata>
    <name>Le lac Lestio par le grand belvédère du Viso (depuis Echalp)</name>
  </metadata>
  <wpt lat="44.73616" lon="6.99671">
    <ele>1797</ele>
    <name><![CDATA[Parking de la Roche Ecroulée]]></name>
  </wpt>
  <wpt lat="44.70887" lon="7.03143">
    <ele>2138</ele>
    <name><![CDATA[Grand belvédère du Viso]]></name>
  </wpt>
  <wpt lat="44.70883" lon="7.03226">
    <ele>2148</ele>
    <name><![CDATA[Sentier descendant le long du Guil]]></name>
  </wpt>
  <wpt lat="44.68965" lon="7.059">
    <ele>2448</ele>
    <name><![CDATA[Carrefour GRP]]></name>
  </wpt>
  <wpt lat="44.7073" lon="7.04928">
    <ele>2444</ele>
    <name><![CDATA[Carrefour GRP]]></name>
  </wpt>
  <wpt lat="44.73614" lon="6.99674">
    <ele>1797</ele>
    <name><![CDATA[Parking de la Roche Ecroulée]]></name>
  </wpt>
  <trk>
    <name><![CDATA[Le lac Lestio par le grand belvédère du Viso]]></name>
    <trkseg>
      <trkpt lat="44.73616" lon="6.99671">
        <ele>1797</ele>
        <time>2021-07-15T19:18:16+02:00</time>
      </trkpt>
      <trkpt lat="44.73564" lon="6.99698">
        <ele>1805</ele>
        <time>2021-07-15T19:18:21+02:00</time>
      </trkpt>
      <trkpt lat="44.73519" lon="6.99739">
        <ele>1810</ele>
        <time>2021-07-15T19:18:26+02:00</time>
      </trkpt>
      <trkpt lat="44.73492" lon="6.99774">
        <ele>1811</ele>
        <time>2021-07-15T19:18:31+02:00</time>
      </trkpt>
      <trkpt lat="44.7343" lon="6.99786">
        <ele>1827</ele>
        <time>2021-07-15T19:18:36+02:00</time>
      </trkpt>
      <trkpt lat="44.73397" lon="6.99781">
        <ele>1845</ele>
        <time>2021-07-15T19:18:41+02:00</time>
      </trkpt>
      <trkpt lat="44.73346" lon="6.99833">
        <ele>1858</ele>
        <time>2021-07-15T19:18:46+02:00</time>
      </trkpt>
      <trkpt lat="44.73325" lon="6.99885">
        <ele>1852</ele>
        <time>2021-07-15T19:18:51+02:00</time>
      </trkpt>
      <trkpt lat="44.73278" lon="6.9988">
        <ele>1866</ele>
        <time>2021-07-15T19:18:56+02:00</time>
      </trkpt>
      <trkpt lat="44.73262" lon="6.9988">
        <ele>1870</ele>
        <time>2021-07-15T19:19:01+02:00</time>
      </trkpt>
      <trkpt lat="44.73266" lon="6.99906">
        <ele>1862</ele>
        <time>2021-07-15T19:19:06+02:00</time>
      </trkpt>
      <trkpt lat="44.73208" lon="6.99905">
        <ele>1880</ele>
        <time>2021-07-15T19:19:11+02:00</time>
      </trkpt>
      <trkpt lat="44.73185" lon="6.99912">
        <ele>1887</ele>
        <time>2021-07-15T19:19:16+02:00</time>
      </trkpt>
      <trkpt lat="44.73178" lon="6.99925">
        <ele>1889</ele>
        <time>2021-07-15T19:19:21+02:00</time>
      </trkpt>
      <trkpt lat="44.7316" lon="6.9994">
        <ele>1893</ele>
        <time>2021-07-15T19:19:26+02:00</time>
      </trkpt>
      <trkpt lat="44.73127" lon="6.99961">
        <ele>1896</ele>
        <time>2021-07-15T19:19:31+02:00</time>
      </trkpt>
      <trkpt lat="44.73091" lon="6.99977">
        <ele>1899</ele>
        <time>2021-07-15T19:19:36+02:00</time>
      </trkpt>
      <trkpt lat="44.73072" lon="7">
        <ele>1898</ele>
        <time>2021-07-15T19:19:41+02:00</time>
      </trkpt>
      <trkpt lat="44.73021" lon="7.00094">
        <ele>1895</ele>
        <time>2021-07-15T19:19:46+02:00</time>
      </trkpt>
      <trkpt lat="44.72985" lon="7.00107">
        <ele>1901</ele>
        <time>2021-07-15T19:19:51+02:00</time>
      </trkpt>
      <trkpt lat="44.72958" lon="7.00144">
        <ele>1900</ele>
        <time>2021-07-15T19:19:56+02:00</time>
      </trkpt>
      <trkpt lat="44.72935" lon="7.00196">
        <ele>1901</ele>
        <time>2021-07-15T19:20:01+02:00</time>
      </trkpt>
      <trkpt lat="44.72924" lon="7.0023">
        <ele>1902</ele>
        <time>2021-07-15T19:20:06+02:00</time>
      </trkpt>
      <trkpt lat="44.7293" lon="7.00253">
        <ele>1903</ele>
        <time>2021-07-15T19:20:11+02:00</time>
      </trkpt>
      <trkpt lat="44.72912" lon="7.00285">
        <ele>1908</ele>
        <time>2021-07-15T19:20:16+02:00</time>
      </trkpt>
      <trkpt lat="44.72908" lon="7.00306">
        <ele>1912</ele>
        <time>2021-07-15T19:20:21+02:00</time>
      </trkpt>
      <trkpt lat="44.7291" lon="7.00337">
        <ele>1917</ele>
        <time>2021-07-15T19:20:26+02:00</time>
      </trkpt>
      <trkpt lat="44.72913" lon="7.00353">
        <ele>1922</ele>
        <time>2021-07-15T19:20:31+02:00</time>
      </trkpt>
      <trkpt lat="44.72748" lon="7.00582">
        <ele>1945</ele>
        <time>2021-07-15T19:20:36+02:00</time>
      </trkpt>
      <trkpt lat="44.72716" lon="7.00611">
        <ele>1948</ele>
        <time>2021-07-15T19:20:41+02:00</time>
      </trkpt>
      <trkpt lat="44.72694" lon="7.00632">
        <ele>1951</ele>
        <time>2021-07-15T19:20:46+02:00</time>
      </trkpt>
      <trkpt lat="44.72666" lon="7.00619">
        <ele>1944</ele>
        <time>2021-07-15T19:20:51+02:00</time>
      </trkpt>
      <trkpt lat="44.72648" lon="7.00627">
        <ele>1945</ele>
        <time>2021-07-15T19:20:56+02:00</time>
      </trkpt>
      <trkpt lat="44.72633" lon="7.00629">
        <ele>1944</ele>
        <time>2021-07-15T19:21:01+02:00</time>
      </trkpt>
      <trkpt lat="44.72624" lon="7.00655">
        <ele>1949</ele>
        <time>2021-07-15T19:21:06+02:00</time>
      </trkpt>
      <trkpt lat="44.72608" lon="7.00689">
        <ele>1955</ele>
        <time>2021-07-15T19:21:11+02:00</time>
      </trkpt>
      <trkpt lat="44.72599" lon="7.00718">
        <ele>1962</ele>
        <time>2021-07-15T19:21:16+02:00</time>
      </trkpt>
      <trkpt lat="44.72563" lon="7.00719">
        <ele>1958</ele>
        <time>2021-07-15T19:21:21+02:00</time>
      </trkpt>
      <trkpt lat="44.72529" lon="7.00734">
        <ele>1955</ele>
        <time>2021-07-15T19:21:26+02:00</time>
      </trkpt>
      <trkpt lat="44.72516" lon="7.00768">
        <ele>1960</ele>
        <time>2021-07-15T19:21:31+02:00</time>
      </trkpt>
      <trkpt lat="44.72498" lon="7.00786">
        <ele>1961</ele>
        <time>2021-07-15T19:21:36+02:00</time>
      </trkpt>
      <trkpt lat="44.72479" lon="7.00791">
        <ele>1967</ele>
        <time>2021-07-15T19:21:41+02:00</time>
      </trkpt>
      <trkpt lat="44.72481" lon="7.00841">
        <ele>1972</ele>
        <time>2021-07-15T19:21:46+02:00</time>
      </trkpt>
      <trkpt lat="44.72479" lon="7.00864">
        <ele>1975</ele>
        <time>2021-07-15T19:21:51+02:00</time>
      </trkpt>
      <trkpt lat="44.72474" lon="7.00875">
        <ele>1976</ele>
        <time>2021-07-15T19:21:56+02:00</time>
      </trkpt>
      <trkpt lat="44.72461" lon="7.00893">
        <ele>1975</ele>
        <time>2021-07-15T19:22:01+02:00</time>
      </trkpt>
      <trkpt lat="44.72439" lon="7.00914">
        <ele>1970</ele>
        <time>2021-07-15T19:22:06+02:00</time>
      </trkpt>
      <trkpt lat="44.72419" lon="7.00966">
        <ele>1969</ele>
        <time>2021-07-15T19:22:11+02:00</time>
      </trkpt>
      <trkpt lat="44.72396" lon="7.01033">
        <ele>1978</ele>
        <time>2021-07-15T19:22:16+02:00</time>
      </trkpt>
      <trkpt lat="44.72364" lon="7.01128">
        <ele>1980</ele>
        <time>2021-07-15T19:22:21+02:00</time>
      </trkpt>
      <trkpt lat="44.72353" lon="7.01157">
        <ele>1980</ele>
        <time>2021-07-15T19:22:26+02:00</time>
      </trkpt>
      <trkpt lat="44.72306" lon="7.01198">
        <ele>1977</ele>
        <time>2021-07-15T19:22:31+02:00</time>
      </trkpt>
      <trkpt lat="44.72252" lon="7.01253">
        <ele>1980</ele>
        <time>2021-07-15T19:22:36+02:00</time>
      </trkpt>
      <trkpt lat="44.72207" lon="7.01292">
        <ele>1983</ele>
        <time>2021-07-15T19:22:41+02:00</time>
      </trkpt>
      <trkpt lat="44.72175" lon="7.01298">
        <ele>1982</ele>
        <time>2021-07-15T19:22:46+02:00</time>
      </trkpt>
      <trkpt lat="44.72152" lon="7.01324">
        <ele>1983</ele>
        <time>2021-07-15T19:22:51+02:00</time>
      </trkpt>
      <trkpt lat="44.72127" lon="7.0135">
        <ele>1984</ele>
        <time>2021-07-15T19:22:56+02:00</time>
      </trkpt>
      <trkpt lat="44.72094" lon="7.01376">
        <ele>1985</ele>
        <time>2021-07-15T19:23:01+02:00</time>
      </trkpt>
      <trkpt lat="44.72042" lon="7.01425">
        <ele>1989</ele>
        <time>2021-07-15T19:23:06+02:00</time>
      </trkpt>
      <trkpt lat="44.71963" lon="7.01465">
        <ele>1997</ele>
        <time>2021-07-15T19:23:11+02:00</time>
      </trkpt>
      <trkpt lat="44.71924" lon="7.01501">
        <ele>1996</ele>
        <time>2021-07-15T19:23:16+02:00</time>
      </trkpt>
      <trkpt lat="44.71888" lon="7.01582">
        <ele>2001</ele>
        <time>2021-07-15T19:23:21+02:00</time>
      </trkpt>
      <trkpt lat="44.71828" lon="7.0163">
        <ele>2001</ele>
        <time>2021-07-15T19:23:26+02:00</time>
      </trkpt>
      <trkpt lat="44.71771" lon="7.01703">
        <ele>2002</ele>
        <time>2021-07-15T19:23:31+02:00</time>
      </trkpt>
      <trkpt lat="44.71706" lon="7.01778">
        <ele>2005</ele>
        <time>2021-07-15T19:23:36+02:00</time>
      </trkpt>
      <trkpt lat="44.71694" lon="7.01812">
        <ele>2005</ele>
        <time>2021-07-15T19:23:41+02:00</time>
      </trkpt>
      <trkpt lat="44.71649" lon="7.01913">
        <ele>2010</ele>
        <time>2021-07-15T19:23:46+02:00</time>
      </trkpt>
      <trkpt lat="44.71606" lon="7.01979">
        <ele>2015</ele>
        <time>2021-07-15T19:23:51+02:00</time>
      </trkpt>
      <trkpt lat="44.71575" lon="7.02049">
        <ele>2019</ele>
        <time>2021-07-15T19:23:56+02:00</time>
      </trkpt>
      <trkpt lat="44.71552" lon="7.02062">
        <ele>2020</ele>
        <time>2021-07-15T19:24:01+02:00</time>
      </trkpt>
      <trkpt lat="44.71509" lon="7.02086">
        <ele>2019</ele>
        <time>2021-07-15T19:24:06+02:00</time>
      </trkpt>
      <trkpt lat="44.71483" lon="7.02101">
        <ele>2020</ele>
        <time>2021-07-15T19:24:11+02:00</time>
      </trkpt>
      <trkpt lat="44.71462" lon="7.02138">
        <ele>2022</ele>
        <time>2021-07-15T19:24:16+02:00</time>
      </trkpt>
      <trkpt lat="44.71428" lon="7.02169">
        <ele>2021</ele>
        <time>2021-07-15T19:24:21+02:00</time>
      </trkpt>
      <trkpt lat="44.71377" lon="7.02198">
        <ele>2023</ele>
        <time>2021-07-15T19:24:26+02:00</time>
      </trkpt>
      <trkpt lat="44.71307" lon="7.02211">
        <ele>2022</ele>
        <time>2021-07-15T19:24:31+02:00</time>
      </trkpt>
      <trkpt lat="44.71284" lon="7.02227">
        <ele>2021</ele>
        <time>2021-07-15T19:24:36+02:00</time>
      </trkpt>
      <trkpt lat="44.7125" lon="7.0231">
        <ele>2026</ele>
        <time>2021-07-15T19:24:41+02:00</time>
      </trkpt>
      <trkpt lat="44.712" lon="7.02417">
        <ele>2036</ele>
        <time>2021-07-15T19:24:46+02:00</time>
      </trkpt>
      <trkpt lat="44.71187" lon="7.02477">
        <ele>2039</ele>
        <time>2021-07-15T19:24:51+02:00</time>
      </trkpt>
      <trkpt lat="44.71167" lon="7.0254">
        <ele>2039</ele>
        <time>2021-07-15T19:24:56+02:00</time>
      </trkpt>
      <trkpt lat="44.71126" lon="7.02561">
        <ele>2040</ele>
        <time>2021-07-15T19:25:01+02:00</time>
      </trkpt>
      <trkpt lat="44.71076" lon="7.02604">
        <ele>2044</ele>
        <time>2021-07-15T19:25:06+02:00</time>
      </trkpt>
      <trkpt lat="44.71029" lon="7.02647">
        <ele>2050</ele>
        <time>2021-07-15T19:25:11+02:00</time>
      </trkpt>
      <trkpt lat="44.70993" lon="7.02728">
        <ele>2064</ele>
        <time>2021-07-15T19:25:16+02:00</time>
      </trkpt>
      <trkpt lat="44.70943" lon="7.02819">
        <ele>2081</ele>
        <time>2021-07-15T19:25:21+02:00</time>
      </trkpt>
      <trkpt lat="44.70908" lon="7.029">
        <ele>2092</ele>
        <time>2021-07-15T19:25:26+02:00</time>
      </trkpt>
      <trkpt lat="44.70899" lon="7.02957">
        <ele>2107</ele>
        <time>2021-07-15T19:25:31+02:00</time>
      </trkpt>
      <trkpt lat="44.70887" lon="7.03009">
        <ele>2118</ele>
        <time>2021-07-15T19:25:36+02:00</time>
      </trkpt>
      <trkpt lat="44.70883" lon="7.03067">
        <ele>2127</ele>
        <time>2021-07-15T19:25:41+02:00</time>
      </trkpt>
      <trkpt lat="44.70887" lon="7.03081">
        <ele>2130</ele>
        <time>2021-07-15T19:25:46+02:00</time>
      </trkpt>
      <trkpt lat="44.7089" lon="7.03094">
        <ele>2133</ele>
        <time>2021-07-15T19:25:51+02:00</time>
      </trkpt>
      <trkpt lat="44.70888" lon="7.03117">
        <ele>2135</ele>
        <time>2021-07-15T19:25:56+02:00</time>
      </trkpt>
      <trkpt lat="44.70887" lon="7.03133">
        <ele>2137</ele>
        <time>2021-07-15T19:26:01+02:00</time>
      </trkpt>
      <trkpt lat="44.70887" lon="7.03143">
        <ele>2138</ele>
        <time>2021-07-15T19:26:06+02:00</time>
      </trkpt>
      <trkpt lat="44.70896" lon="7.03147">
        <ele>2142</ele>
        <time>2021-07-15T19:26:11+02:00</time>
      </trkpt>
      <trkpt lat="44.70894" lon="7.03167">
        <ele>2144</ele>
        <time>2021-07-15T19:26:16+02:00</time>
      </trkpt>
      <trkpt lat="44.70879" lon="7.03192">
        <ele>2140</ele>
        <time>2021-07-15T19:26:21+02:00</time>
      </trkpt>
      <trkpt lat="44.70878" lon="7.03206">
        <ele>2142</ele>
        <time>2021-07-15T19:26:26+02:00</time>
      </trkpt>
      <trkpt lat="44.70894" lon="7.032">
        <ele>2149</ele>
        <time>2021-07-15T19:26:31+02:00</time>
      </trkpt>
      <trkpt lat="44.70883" lon="7.03226">
        <ele>2148</ele>
        <time>2021-07-15T19:26:36+02:00</time>
      </trkpt>
      <trkpt lat="44.70877" lon="7.03271">
        <ele>2153</ele>
        <time>2021-07-15T19:26:41+02:00</time>
      </trkpt>
      <trkpt lat="44.70867" lon="7.03302">
        <ele>2155</ele>
        <time>2021-07-15T19:26:46+02:00</time>
      </trkpt>
      <trkpt lat="44.70843" lon="7.03332">
        <ele>2151</ele>
        <time>2021-07-15T19:26:51+02:00</time>
      </trkpt>
      <trkpt lat="44.70823" lon="7.03349">
        <ele>2150</ele>
        <time>2021-07-15T19:26:56+02:00</time>
      </trkpt>
      <trkpt lat="44.70805" lon="7.03386">
        <ele>2156</ele>
        <time>2021-07-15T19:27:01+02:00</time>
      </trkpt>
      <trkpt lat="44.70778" lon="7.03462">
        <ele>2161</ele>
        <time>2021-07-15T19:27:06+02:00</time>
      </trkpt>
      <trkpt lat="44.70755" lon="7.03503">
        <ele>2158</ele>
        <time>2021-07-15T19:27:11+02:00</time>
      </trkpt>
      <trkpt lat="44.7074" lon="7.03553">
        <ele>2160</ele>
        <time>2021-07-15T19:27:16+02:00</time>
      </trkpt>
      <trkpt lat="44.70734" lon="7.03589">
        <ele>2162</ele>
        <time>2021-07-15T19:27:21+02:00</time>
      </trkpt>
      <trkpt lat="44.70729" lon="7.03638">
        <ele>2165</ele>
        <time>2021-07-15T19:27:26+02:00</time>
      </trkpt>
      <trkpt lat="44.70723" lon="7.03662">
        <ele>2165</ele>
        <time>2021-07-15T19:27:31+02:00</time>
      </trkpt>
      <trkpt lat="44.70712" lon="7.03692">
        <ele>2166</ele>
        <time>2021-07-15T19:27:36+02:00</time>
      </trkpt>
      <trkpt lat="44.70705" lon="7.03728">
        <ele>2167</ele>
        <time>2021-07-15T19:27:41+02:00</time>
      </trkpt>
      <trkpt lat="44.7069" lon="7.0374">
        <ele>2164</ele>
        <time>2021-07-15T19:27:46+02:00</time>
      </trkpt>
      <trkpt lat="44.70661" lon="7.03746">
        <ele>2160</ele>
        <time>2021-07-15T19:27:51+02:00</time>
      </trkpt>
      <trkpt lat="44.70639" lon="7.03764">
        <ele>2162</ele>
        <time>2021-07-15T19:27:56+02:00</time>
      </trkpt>
      <trkpt lat="44.7062" lon="7.03771">
        <ele>2162</ele>
        <time>2021-07-15T19:28:01+02:00</time>
      </trkpt>
      <trkpt lat="44.70587" lon="7.03792">
        <ele>2162</ele>
        <time>2021-07-15T19:28:06+02:00</time>
      </trkpt>
      <trkpt lat="44.70556" lon="7.03813">
        <ele>2164</ele>
        <time>2021-07-15T19:28:11+02:00</time>
      </trkpt>
      <trkpt lat="44.70531" lon="7.0384">
        <ele>2163</ele>
        <time>2021-07-15T19:28:16+02:00</time>
      </trkpt>
      <trkpt lat="44.70509" lon="7.03875">
        <ele>2163</ele>
        <time>2021-07-15T19:28:21+02:00</time>
      </trkpt>
      <trkpt lat="44.70489" lon="7.03912">
        <ele>2163</ele>
        <time>2021-07-15T19:28:26+02:00</time>
      </trkpt>
      <trkpt lat="44.70479" lon="7.03943">
        <ele>2166</ele>
        <time>2021-07-15T19:28:31+02:00</time>
      </trkpt>
      <trkpt lat="44.70477" lon="7.0396">
        <ele>2167</ele>
        <time>2021-07-15T19:28:36+02:00</time>
      </trkpt>
      <trkpt lat="44.70454" lon="7.0398">
        <ele>2166</ele>
        <time>2021-07-15T19:28:41+02:00</time>
      </trkpt>
      <trkpt lat="44.70369" lon="7.04045">
        <ele>2170</ele>
        <time>2021-07-15T19:28:46+02:00</time>
      </trkpt>
      <trkpt lat="44.70326" lon="7.0409">
        <ele>2173</ele>
        <time>2021-07-15T19:28:51+02:00</time>
      </trkpt>
      <trkpt lat="44.7031" lon="7.04096">
        <ele>2175</ele>
        <time>2021-07-15T19:28:56+02:00</time>
      </trkpt>
      <trkpt lat="44.70266" lon="7.04127">
        <ele>2179</ele>
        <time>2021-07-15T19:29:01+02:00</time>
      </trkpt>
      <trkpt lat="44.70289" lon="7.0411">
        <ele>2177</ele>
        <time>2021-07-15T19:29:06+02:00</time>
      </trkpt>
      <trkpt lat="44.70172" lon="7.04163">
        <ele>2179</ele>
        <time>2021-07-15T19:29:11+02:00</time>
      </trkpt>
      <trkpt lat="44.70114" lon="7.04186">
        <ele>2188</ele>
        <time>2021-07-15T19:29:16+02:00</time>
      </trkpt>
      <trkpt lat="44.70082" lon="7.04221">
        <ele>2192</ele>
        <time>2021-07-15T19:29:21+02:00</time>
      </trkpt>
      <trkpt lat="44.70208" lon="7.04148">
        <ele>2180</ele>
        <time>2021-07-15T19:29:26+02:00</time>
      </trkpt>
      <trkpt lat="44.70015" lon="7.04259">
        <ele>2196</ele>
        <time>2021-07-15T19:29:31+02:00</time>
      </trkpt>
      <trkpt lat="44.69993" lon="7.04288">
        <ele>2199</ele>
        <time>2021-07-15T19:29:36+02:00</time>
      </trkpt>
      <trkpt lat="44.69957" lon="7.04328">
        <ele>2202</ele>
        <time>2021-07-15T19:29:41+02:00</time>
      </trkpt>
      <trkpt lat="44.69946" lon="7.04333">
        <ele>2201</ele>
        <time>2021-07-15T19:29:46+02:00</time>
      </trkpt>
      <trkpt lat="44.69933" lon="7.04348">
        <ele>2203</ele>
        <time>2021-07-15T19:29:51+02:00</time>
      </trkpt>
      <trkpt lat="44.69898" lon="7.04369">
        <ele>2208</ele>
        <time>2021-07-15T19:29:56+02:00</time>
      </trkpt>
      <trkpt lat="44.69969" lon="7.04311">
        <ele>2202</ele>
        <time>2021-07-15T19:30:01+02:00</time>
      </trkpt>
      <trkpt lat="44.70053" lon="7.04245">
        <ele>2195</ele>
        <time>2021-07-15T19:30:06+02:00</time>
      </trkpt>
      <trkpt lat="44.69882" lon="7.04383">
        <ele>2210</ele>
        <time>2021-07-15T19:30:11+02:00</time>
      </trkpt>
      <trkpt lat="44.69868" lon="7.04392">
        <ele>2211</ele>
        <time>2021-07-15T19:30:16+02:00</time>
      </trkpt>
      <trkpt lat="44.69865" lon="7.0441">
        <ele>2211</ele>
        <time>2021-07-15T19:30:21+02:00</time>
      </trkpt>
      <trkpt lat="44.69861" lon="7.0443">
        <ele>2213</ele>
        <time>2021-07-15T19:30:26+02:00</time>
      </trkpt>
      <trkpt lat="44.69824" lon="7.0446">
        <ele>2221</ele>
        <time>2021-07-15T19:30:31+02:00</time>
      </trkpt>
      <trkpt lat="44.69843" lon="7.04436">
        <ele>2214</ele>
        <time>2021-07-15T19:30:36+02:00</time>
      </trkpt>
      <trkpt lat="44.6978" lon="7.04513">
        <ele>2234</ele>
        <time>2021-07-15T19:30:41+02:00</time>
      </trkpt>
      <trkpt lat="44.69766" lon="7.04549">
        <ele>2237</ele>
        <time>2021-07-15T19:30:46+02:00</time>
      </trkpt>
      <trkpt lat="44.69743" lon="7.04572">
        <ele>2238</ele>
        <time>2021-07-15T19:30:51+02:00</time>
      </trkpt>
      <trkpt lat="44.69726" lon="7.04605">
        <ele>2247</ele>
        <time>2021-07-15T19:30:56+02:00</time>
      </trkpt>
      <trkpt lat="44.697" lon="7.04617">
        <ele>2253</ele>
        <time>2021-07-15T19:31:01+02:00</time>
      </trkpt>
      <trkpt lat="44.69651" lon="7.04677">
        <ele>2256</ele>
        <time>2021-07-15T19:31:06+02:00</time>
      </trkpt>
      <trkpt lat="44.69609" lon="7.04735">
        <ele>2265</ele>
        <time>2021-07-15T19:31:11+02:00</time>
      </trkpt>
      <trkpt lat="44.69575" lon="7.0476">
        <ele>2264</ele>
        <time>2021-07-15T19:31:16+02:00</time>
      </trkpt>
      <trkpt lat="44.69541" lon="7.04805">
        <ele>2272</ele>
        <time>2021-07-15T19:31:21+02:00</time>
      </trkpt>
      <trkpt lat="44.69512" lon="7.04846">
        <ele>2273</ele>
        <time>2021-07-15T19:31:26+02:00</time>
      </trkpt>
      <trkpt lat="44.69486" lon="7.04862">
        <ele>2279</ele>
        <time>2021-07-15T19:31:31+02:00</time>
      </trkpt>
      <trkpt lat="44.6947" lon="7.04877">
        <ele>2284</ele>
        <time>2021-07-15T19:31:36+02:00</time>
      </trkpt>
      <trkpt lat="44.69418" lon="7.04961">
        <ele>2298</ele>
        <time>2021-07-15T19:31:41+02:00</time>
      </trkpt>
      <trkpt lat="44.69376" lon="7.05075">
        <ele>2320</ele>
        <time>2021-07-15T19:31:46+02:00</time>
      </trkpt>
      <trkpt lat="44.69352" lon="7.05139">
        <ele>2340</ele>
        <time>2021-07-15T19:31:51+02:00</time>
      </trkpt>
      <trkpt lat="44.69319" lon="7.05147">
        <ele>2343</ele>
        <time>2021-07-15T19:31:56+02:00</time>
      </trkpt>
      <trkpt lat="44.69282" lon="7.05175">
        <ele>2352</ele>
        <time>2021-07-15T19:32:01+02:00</time>
      </trkpt>
      <trkpt lat="44.69238" lon="7.05192">
        <ele>2357</ele>
        <time>2021-07-15T19:32:06+02:00</time>
      </trkpt>
      <trkpt lat="44.69206" lon="7.05244">
        <ele>2373</ele>
        <time>2021-07-15T19:32:11+02:00</time>
      </trkpt>
      <trkpt lat="44.69161" lon="7.05308">
        <ele>2388</ele>
        <time>2021-07-15T19:32:16+02:00</time>
      </trkpt>
      <trkpt lat="44.69131" lon="7.05334">
        <ele>2392</ele>
        <time>2021-07-15T19:32:21+02:00</time>
      </trkpt>
      <trkpt lat="44.69102" lon="7.05368">
        <ele>2395</ele>
        <time>2021-07-15T19:32:26+02:00</time>
      </trkpt>
      <trkpt lat="44.69076" lon="7.05458">
        <ele>2406</ele>
        <time>2021-07-15T19:32:31+02:00</time>
      </trkpt>
      <trkpt lat="44.69055" lon="7.05524">
        <ele>2413</ele>
        <time>2021-07-15T19:32:36+02:00</time>
      </trkpt>
      <trkpt lat="44.69045" lon="7.05588">
        <ele>2419</ele>
        <time>2021-07-15T19:32:41+02:00</time>
      </trkpt>
      <trkpt lat="44.69012" lon="7.05693">
        <ele>2431</ele>
        <time>2021-07-15T19:32:46+02:00</time>
      </trkpt>
      <trkpt lat="44.68985" lon="7.0575">
        <ele>2439</ele>
        <time>2021-07-15T19:32:51+02:00</time>
      </trkpt>
      <trkpt lat="44.68982" lon="7.0578">
        <ele>2441</ele>
        <time>2021-07-15T19:32:56+02:00</time>
      </trkpt>
      <trkpt lat="44.68965" lon="7.05821">
        <ele>2443</ele>
        <time>2021-07-15T19:33:01+02:00</time>
      </trkpt>
      <trkpt lat="44.68965" lon="7.059">
        <ele>2448</ele>
        <time>2021-07-15T19:33:06+02:00</time>
      </trkpt>
      <trkpt lat="44.68961" lon="7.05962">
        <ele>2451</ele>
        <time>2021-07-15T19:33:11+02:00</time>
      </trkpt>
      <trkpt lat="44.68961" lon="7.05982">
        <ele>2452</ele>
        <time>2021-07-15T19:33:16+02:00</time>
      </trkpt>
      <trkpt lat="44.68959" lon="7.06009">
        <ele>2453</ele>
        <time>2021-07-15T19:33:21+02:00</time>
      </trkpt>
      <trkpt lat="44.68921" lon="7.06022">
        <ele>2454</ele>
        <time>2021-07-15T19:33:26+02:00</time>
      </trkpt>
      <trkpt lat="44.68898" lon="7.06071">
        <ele>2458</ele>
        <time>2021-07-15T19:33:31+02:00</time>
      </trkpt>
      <trkpt lat="44.68853" lon="7.0615">
        <ele>2468</ele>
        <time>2021-07-15T19:33:36+02:00</time>
      </trkpt>
      <trkpt lat="44.68812" lon="7.06199">
        <ele>2480</ele>
        <time>2021-07-15T19:33:41+02:00</time>
      </trkpt>
      <trkpt lat="44.68794" lon="7.06244">
        <ele>2488</ele>
        <time>2021-07-15T19:33:46+02:00</time>
      </trkpt>
      <trkpt lat="44.6877" lon="7.06311">
        <ele>2498</ele>
        <time>2021-07-15T19:33:51+02:00</time>
      </trkpt>
      <trkpt lat="44.68735" lon="7.06458">
        <ele>2510</ele>
        <time>2021-07-15T19:33:56+02:00</time>
      </trkpt>
      <trkpt lat="44.68729" lon="7.06478">
        <ele>2512</ele>
        <time>2021-07-15T19:34:01+02:00</time>
      </trkpt>
      <trkpt lat="44.68754" lon="7.06371">
        <ele>2504</ele>
        <time>2021-07-15T19:34:06+02:00</time>
      </trkpt>
      <trkpt lat="44.68781" lon="7.06272">
        <ele>2493</ele>
        <time>2021-07-15T19:34:11+02:00</time>
      </trkpt>
      <trkpt lat="44.68799" lon="7.06228">
        <ele>2486</ele>
        <time>2021-07-15T19:34:16+02:00</time>
      </trkpt>
      <trkpt lat="44.68824" lon="7.06191">
        <ele>2477</ele>
        <time>2021-07-15T19:34:21+02:00</time>
      </trkpt>
      <trkpt lat="44.68864" lon="7.06134">
        <ele>2466</ele>
        <time>2021-07-15T19:34:26+02:00</time>
      </trkpt>
      <trkpt lat="44.68914" lon="7.06048">
        <ele>2456</ele>
        <time>2021-07-15T19:34:31+02:00</time>
      </trkpt>
      <trkpt lat="44.68919" lon="7.06021">
        <ele>2454</ele>
        <time>2021-07-15T19:34:36+02:00</time>
      </trkpt>
      <trkpt lat="44.68955" lon="7.06008">
        <ele>2453</ele>
        <time>2021-07-15T19:34:41+02:00</time>
      </trkpt>
      <trkpt lat="44.6896" lon="7.05985">
        <ele>2452</ele>
        <time>2021-07-15T19:34:46+02:00</time>
      </trkpt>
      <trkpt lat="44.68961" lon="7.05959">
        <ele>2451</ele>
        <time>2021-07-15T19:34:51+02:00</time>
      </trkpt>
      <trkpt lat="44.68996" lon="7.05901">
        <ele>2449</ele>
        <time>2021-07-15T19:34:56+02:00</time>
      </trkpt>
      <trkpt lat="44.69019" lon="7.0585">
        <ele>2446</ele>
        <time>2021-07-15T19:35:01+02:00</time>
      </trkpt>
      <trkpt lat="44.69061" lon="7.05766">
        <ele>2441</ele>
        <time>2021-07-15T19:35:06+02:00</time>
      </trkpt>
      <trkpt lat="44.69093" lon="7.05713">
        <ele>2433</ele>
        <time>2021-07-15T19:35:11+02:00</time>
      </trkpt>
      <trkpt lat="44.6913" lon="7.05655">
        <ele>2423</ele>
        <time>2021-07-15T19:35:16+02:00</time>
      </trkpt>
      <trkpt lat="44.69173" lon="7.05628">
        <ele>2420</ele>
        <time>2021-07-15T19:35:21+02:00</time>
      </trkpt>
      <trkpt lat="44.69212" lon="7.05602">
        <ele>2419</ele>
        <time>2021-07-15T19:35:26+02:00</time>
      </trkpt>
      <trkpt lat="44.69257" lon="7.05589">
        <ele>2420</ele>
        <time>2021-07-15T19:35:31+02:00</time>
      </trkpt>
      <trkpt lat="44.69309" lon="7.05558">
        <ele>2419</ele>
        <time>2021-07-15T19:35:36+02:00</time>
      </trkpt>
      <trkpt lat="44.69369" lon="7.05541">
        <ele>2421</ele>
        <time>2021-07-15T19:35:41+02:00</time>
      </trkpt>
      <trkpt lat="44.69408" lon="7.05528">
        <ele>2421</ele>
        <time>2021-07-15T19:35:46+02:00</time>
      </trkpt>
      <trkpt lat="44.69473" lon="7.05533">
        <ele>2428</ele>
        <time>2021-07-15T19:35:51+02:00</time>
      </trkpt>
      <trkpt lat="44.69526" lon="7.05493">
        <ele>2427</ele>
        <time>2021-07-15T19:35:56+02:00</time>
      </trkpt>
      <trkpt lat="44.69578" lon="7.05451">
        <ele>2428</ele>
        <time>2021-07-15T19:36:01+02:00</time>
      </trkpt>
      <trkpt lat="44.69646" lon="7.05443">
        <ele>2432</ele>
        <time>2021-07-15T19:36:06+02:00</time>
      </trkpt>
      <trkpt lat="44.69682" lon="7.0541">
        <ele>2429</ele>
        <time>2021-07-15T19:36:11+02:00</time>
      </trkpt>
      <trkpt lat="44.69741" lon="7.05376">
        <ele>2430</ele>
        <time>2021-07-15T19:36:16+02:00</time>
      </trkpt>
      <trkpt lat="44.69787" lon="7.05365">
        <ele>2439</ele>
        <time>2021-07-15T19:36:21+02:00</time>
      </trkpt>
      <trkpt lat="44.6986" lon="7.05301">
        <ele>2446</ele>
        <time>2021-07-15T19:36:26+02:00</time>
      </trkpt>
      <trkpt lat="44.6992" lon="7.05263">
        <ele>2455</ele>
        <time>2021-07-15T19:36:31+02:00</time>
      </trkpt>
      <trkpt lat="44.69984" lon="7.05211">
        <ele>2459</ele>
        <time>2021-07-15T19:36:36+02:00</time>
      </trkpt>
      <trkpt lat="44.70024" lon="7.05164">
        <ele>2458</ele>
        <time>2021-07-15T19:36:41+02:00</time>
      </trkpt>
      <trkpt lat="44.70031" lon="7.05123">
        <ele>2451</ele>
        <time>2021-07-15T19:36:46+02:00</time>
      </trkpt>
      <trkpt lat="44.70048" lon="7.05121">
        <ele>2454</ele>
        <time>2021-07-15T19:36:51+02:00</time>
      </trkpt>
      <trkpt lat="44.701" lon="7.05169">
        <ele>2464</ele>
        <time>2021-07-15T19:36:56+02:00</time>
      </trkpt>
      <trkpt lat="44.70121" lon="7.05177">
        <ele>2463</ele>
        <time>2021-07-15T19:37:01+02:00</time>
      </trkpt>
      <trkpt lat="44.70185" lon="7.05185">
        <ele>2460</ele>
        <time>2021-07-15T19:37:06+02:00</time>
      </trkpt>
      <trkpt lat="44.70251" lon="7.05176">
        <ele>2457</ele>
        <time>2021-07-15T19:37:11+02:00</time>
      </trkpt>
      <trkpt lat="44.70294" lon="7.0515">
        <ele>2456</ele>
        <time>2021-07-15T19:37:16+02:00</time>
      </trkpt>
      <trkpt lat="44.70343" lon="7.05127">
        <ele>2455</ele>
        <time>2021-07-15T19:37:21+02:00</time>
      </trkpt>
      <trkpt lat="44.70435" lon="7.05063">
        <ele>2452</ele>
        <time>2021-07-15T19:37:26+02:00</time>
      </trkpt>
      <trkpt lat="44.70452" lon="7.05067">
        <ele>2455</ele>
        <time>2021-07-15T19:37:31+02:00</time>
      </trkpt>
      <trkpt lat="44.70465" lon="7.05055">
        <ele>2453</ele>
        <time>2021-07-15T19:37:36+02:00</time>
      </trkpt>
      <trkpt lat="44.70501" lon="7.0501">
        <ele>2446</ele>
        <time>2021-07-15T19:37:41+02:00</time>
      </trkpt>
      <trkpt lat="44.70542" lon="7.04987">
        <ele>2444</ele>
        <time>2021-07-15T19:37:46+02:00</time>
      </trkpt>
      <trkpt lat="44.70593" lon="7.04951">
        <ele>2442</ele>
        <time>2021-07-15T19:37:51+02:00</time>
      </trkpt>
      <trkpt lat="44.70632" lon="7.04976">
        <ele>2446</ele>
        <time>2021-07-15T19:37:56+02:00</time>
      </trkpt>
      <trkpt lat="44.70659" lon="7.04985">
        <ele>2447</ele>
        <time>2021-07-15T19:38:01+02:00</time>
      </trkpt>
      <trkpt lat="44.70687" lon="7.04979">
        <ele>2447</ele>
        <time>2021-07-15T19:38:06+02:00</time>
      </trkpt>
      <trkpt lat="44.7071" lon="7.0496">
        <ele>2446</ele>
        <time>2021-07-15T19:38:11+02:00</time>
      </trkpt>
      <trkpt lat="44.7073" lon="7.04928">
        <ele>2444</ele>
        <time>2021-07-15T19:38:16+02:00</time>
      </trkpt>
      <trkpt lat="44.70694" lon="7.04819">
        <ele>2427</ele>
        <time>2021-07-15T19:38:21+02:00</time>
      </trkpt>
      <trkpt lat="44.70682" lon="7.04723">
        <ele>2405</ele>
        <time>2021-07-15T19:38:26+02:00</time>
      </trkpt>
      <trkpt lat="44.70694" lon="7.04688">
        <ele>2398</ele>
        <time>2021-07-15T19:38:31+02:00</time>
      </trkpt>
      <trkpt lat="44.70704" lon="7.04663">
        <ele>2392</ele>
        <time>2021-07-15T19:38:36+02:00</time>
      </trkpt>
      <trkpt lat="44.70725" lon="7.04657">
        <ele>2394</ele>
        <time>2021-07-15T19:38:41+02:00</time>
      </trkpt>
      <trkpt lat="44.70739" lon="7.04635">
        <ele>2389</ele>
        <time>2021-07-15T19:38:46+02:00</time>
      </trkpt>
      <trkpt lat="44.7074" lon="7.0462">
        <ele>2385</ele>
        <time>2021-07-15T19:38:51+02:00</time>
      </trkpt>
      <trkpt lat="44.70727" lon="7.04606">
        <ele>2377</ele>
        <time>2021-07-15T19:38:56+02:00</time>
      </trkpt>
      <trkpt lat="44.70711" lon="7.04586">
        <ele>2367</ele>
        <time>2021-07-15T19:39:01+02:00</time>
      </trkpt>
      <trkpt lat="44.70724" lon="7.04564">
        <ele>2365</ele>
        <time>2021-07-15T19:39:06+02:00</time>
      </trkpt>
      <trkpt lat="44.70729" lon="7.04498">
        <ele>2352</ele>
        <time>2021-07-15T19:39:11+02:00</time>
      </trkpt>
      <trkpt lat="44.70754" lon="7.04406">
        <ele>2340</ele>
        <time>2021-07-15T19:39:16+02:00</time>
      </trkpt>
      <trkpt lat="44.70785" lon="7.04292">
        <ele>2321</ele>
        <time>2021-07-15T19:39:21+02:00</time>
      </trkpt>
      <trkpt lat="44.70802" lon="7.04219">
        <ele>2311</ele>
        <time>2021-07-15T19:39:26+02:00</time>
      </trkpt>
      <trkpt lat="44.70774" lon="7.0417">
        <ele>2296</ele>
        <time>2021-07-15T19:39:31+02:00</time>
      </trkpt>
      <trkpt lat="44.70779" lon="7.04133">
        <ele>2291</ele>
        <time>2021-07-15T19:39:36+02:00</time>
      </trkpt>
      <trkpt lat="44.7078" lon="7.04097">
        <ele>2286</ele>
        <time>2021-07-15T19:39:41+02:00</time>
      </trkpt>
      <trkpt lat="44.70786" lon="7.04052">
        <ele>2280</ele>
        <time>2021-07-15T19:39:46+02:00</time>
      </trkpt>
      <trkpt lat="44.70769" lon="7.04038">
        <ele>2273</ele>
        <time>2021-07-15T19:39:51+02:00</time>
      </trkpt>
      <trkpt lat="44.70763" lon="7.04007">
        <ele>2265</ele>
        <time>2021-07-15T19:39:56+02:00</time>
      </trkpt>
      <trkpt lat="44.70773" lon="7.03977">
        <ele>2261</ele>
        <time>2021-07-15T19:40:01+02:00</time>
      </trkpt>
      <trkpt lat="44.70798" lon="7.0391">
        <ele>2249</ele>
        <time>2021-07-15T19:40:06+02:00</time>
      </trkpt>
      <trkpt lat="44.70818" lon="7.03884">
        <ele>2249</ele>
        <time>2021-07-15T19:40:11+02:00</time>
      </trkpt>
      <trkpt lat="44.70836" lon="7.03846">
        <ele>2247</ele>
        <time>2021-07-15T19:40:16+02:00</time>
      </trkpt>
      <trkpt lat="44.70853" lon="7.03756">
        <ele>2231</ele>
        <time>2021-07-15T19:40:21+02:00</time>
      </trkpt>
      <trkpt lat="44.70871" lon="7.03676">
        <ele>2223</ele>
        <time>2021-07-15T19:40:26+02:00</time>
      </trkpt>
      <trkpt lat="44.70879" lon="7.03582">
        <ele>2211</ele>
        <time>2021-07-15T19:40:31+02:00</time>
      </trkpt>
      <trkpt lat="44.70876" lon="7.03524">
        <ele>2200</ele>
        <time>2021-07-15T19:40:36+02:00</time>
      </trkpt>
      <trkpt lat="44.70892" lon="7.03483">
        <ele>2199</ele>
        <time>2021-07-15T19:40:41+02:00</time>
      </trkpt>
      <trkpt lat="44.70904" lon="7.03459">
        <ele>2199</ele>
        <time>2021-07-15T19:40:46+02:00</time>
      </trkpt>
      <trkpt lat="44.709" lon="7.03437">
        <ele>2194</ele>
        <time>2021-07-15T19:40:51+02:00</time>
      </trkpt>
      <trkpt lat="44.70902" lon="7.03386">
        <ele>2187</ele>
        <time>2021-07-15T19:40:56+02:00</time>
      </trkpt>
      <trkpt lat="44.70896" lon="7.03278">
        <ele>2164</ele>
        <time>2021-07-15T19:41:01+02:00</time>
      </trkpt>
      <trkpt lat="44.70914" lon="7.03229">
        <ele>2164</ele>
        <time>2021-07-15T19:41:06+02:00</time>
      </trkpt>
      <trkpt lat="44.70885" lon="7.03235">
        <ele>2150</ele>
        <time>2021-07-15T19:41:11+02:00</time>
      </trkpt>
      <trkpt lat="44.70885" lon="7.03224">
        <ele>2148</ele>
        <time>2021-07-15T19:41:16+02:00</time>
      </trkpt>
      <trkpt lat="44.70893" lon="7.03201">
        <ele>2149</ele>
        <time>2021-07-15T19:41:21+02:00</time>
      </trkpt>
      <trkpt lat="44.70877" lon="7.03206">
        <ele>2142</ele>
        <time>2021-07-15T19:41:26+02:00</time>
      </trkpt>
      <trkpt lat="44.70878" lon="7.03193">
        <ele>2140</ele>
        <time>2021-07-15T19:41:31+02:00</time>
      </trkpt>
      <trkpt lat="44.70883" lon="7.03185">
        <ele>2142</ele>
        <time>2021-07-15T19:41:36+02:00</time>
      </trkpt>
      <trkpt lat="44.70893" lon="7.03169">
        <ele>2144</ele>
        <time>2021-07-15T19:41:41+02:00</time>
      </trkpt>
      <trkpt lat="44.70897" lon="7.03147">
        <ele>2143</ele>
        <time>2021-07-15T19:41:46+02:00</time>
      </trkpt>
      <trkpt lat="44.7089" lon="7.03143">
        <ele>2139</ele>
        <time>2021-07-15T19:41:51+02:00</time>
      </trkpt>
      <trkpt lat="44.70886" lon="7.03133">
        <ele>2136</ele>
        <time>2021-07-15T19:41:56+02:00</time>
      </trkpt>
      <trkpt lat="44.70891" lon="7.03098">
        <ele>2134</ele>
        <time>2021-07-15T19:42:01+02:00</time>
      </trkpt>
      <trkpt lat="44.7088" lon="7.03059">
        <ele>2124</ele>
        <time>2021-07-15T19:42:06+02:00</time>
      </trkpt>
      <trkpt lat="44.70881" lon="7.03044">
        <ele>2122</ele>
        <time>2021-07-15T19:42:11+02:00</time>
      </trkpt>
      <trkpt lat="44.70898" lon="7.02957">
        <ele>2107</ele>
        <time>2021-07-15T19:42:16+02:00</time>
      </trkpt>
      <trkpt lat="44.70909" lon="7.02902">
        <ele>2092</ele>
        <time>2021-07-15T19:42:21+02:00</time>
      </trkpt>
      <trkpt lat="44.70934" lon="7.0284">
        <ele>2082</ele>
        <time>2021-07-15T19:42:26+02:00</time>
      </trkpt>
      <trkpt lat="44.7102" lon="7.02678">
        <ele>2054</ele>
        <time>2021-07-15T19:42:31+02:00</time>
      </trkpt>
      <trkpt lat="44.71041" lon="7.02639">
        <ele>2050</ele>
        <time>2021-07-15T19:42:36+02:00</time>
      </trkpt>
      <trkpt lat="44.71119" lon="7.02569">
        <ele>2040</ele>
        <time>2021-07-15T19:42:41+02:00</time>
      </trkpt>
      <trkpt lat="44.7116" lon="7.02537">
        <ele>2039</ele>
        <time>2021-07-15T19:42:46+02:00</time>
      </trkpt>
      <trkpt lat="44.71169" lon="7.02529">
        <ele>2039</ele>
        <time>2021-07-15T19:42:51+02:00</time>
      </trkpt>
      <trkpt lat="44.71183" lon="7.02498">
        <ele>2039</ele>
        <time>2021-07-15T19:42:56+02:00</time>
      </trkpt>
      <trkpt lat="44.71202" lon="7.02419">
        <ele>2036</ele>
        <time>2021-07-15T19:43:01+02:00</time>
      </trkpt>
      <trkpt lat="44.71225" lon="7.0237">
        <ele>2033</ele>
        <time>2021-07-15T19:43:06+02:00</time>
      </trkpt>
      <trkpt lat="44.71248" lon="7.02318">
        <ele>2027</ele>
        <time>2021-07-15T19:43:11+02:00</time>
      </trkpt>
      <trkpt lat="44.71266" lon="7.02271">
        <ele>2024</ele>
        <time>2021-07-15T19:43:16+02:00</time>
      </trkpt>
      <trkpt lat="44.71282" lon="7.02239">
        <ele>2021</ele>
        <time>2021-07-15T19:43:21+02:00</time>
      </trkpt>
      <trkpt lat="44.71298" lon="7.02216">
        <ele>2022</ele>
        <time>2021-07-15T19:43:26+02:00</time>
      </trkpt>
      <trkpt lat="44.71318" lon="7.02203">
        <ele>2022</ele>
        <time>2021-07-15T19:43:31+02:00</time>
      </trkpt>
      <trkpt lat="44.71354" lon="7.02205">
        <ele>2023</ele>
        <time>2021-07-15T19:43:36+02:00</time>
      </trkpt>
      <trkpt lat="44.71395" lon="7.02198">
        <ele>2023</ele>
        <time>2021-07-15T19:43:41+02:00</time>
      </trkpt>
      <trkpt lat="44.71431" lon="7.02164">
        <ele>2021</ele>
        <time>2021-07-15T19:43:46+02:00</time>
      </trkpt>
      <trkpt lat="44.71455" lon="7.02151">
        <ele>2022</ele>
        <time>2021-07-15T19:43:51+02:00</time>
      </trkpt>
      <trkpt lat="44.71478" lon="7.0212">
        <ele>2021</ele>
        <time>2021-07-15T19:43:56+02:00</time>
      </trkpt>
      <trkpt lat="44.71491" lon="7.02107">
        <ele>2021</ele>
        <time>2021-07-15T19:44:01+02:00</time>
      </trkpt>
      <trkpt lat="44.71525" lon="7.02075">
        <ele>2020</ele>
        <time>2021-07-15T19:44:06+02:00</time>
      </trkpt>
      <trkpt lat="44.71575" lon="7.0206">
        <ele>2020</ele>
        <time>2021-07-15T19:44:11+02:00</time>
      </trkpt>
      <trkpt lat="44.71597" lon="7.02013">
        <ele>2017</ele>
        <time>2021-07-15T19:44:16+02:00</time>
      </trkpt>
      <trkpt lat="44.71611" lon="7.01981">
        <ele>2015</ele>
        <time>2021-07-15T19:44:21+02:00</time>
      </trkpt>
      <trkpt lat="44.71636" lon="7.01937">
        <ele>2012</ele>
        <time>2021-07-15T19:44:26+02:00</time>
      </trkpt>
      <trkpt lat="44.71663" lon="7.01898">
        <ele>2008</ele>
        <time>2021-07-15T19:44:31+02:00</time>
      </trkpt>
      <trkpt lat="44.71681" lon="7.01846">
        <ele>2006</ele>
        <time>2021-07-15T19:44:36+02:00</time>
      </trkpt>
      <trkpt lat="44.71699" lon="7.01804">
        <ele>2005</ele>
        <time>2021-07-15T19:44:41+02:00</time>
      </trkpt>
      <trkpt lat="44.71717" lon="7.01775">
        <ele>2005</ele>
        <time>2021-07-15T19:44:46+02:00</time>
      </trkpt>
      <trkpt lat="44.71771" lon="7.01707">
        <ele>2002</ele>
        <time>2021-07-15T19:44:51+02:00</time>
      </trkpt>
      <trkpt lat="44.71794" lon="7.01687">
        <ele>2002</ele>
        <time>2021-07-15T19:44:56+02:00</time>
      </trkpt>
      <trkpt lat="44.71816" lon="7.01655">
        <ele>2001</ele>
        <time>2021-07-15T19:45:01+02:00</time>
      </trkpt>
      <trkpt lat="44.71823" lon="7.01642">
        <ele>2001</ele>
        <time>2021-07-15T19:45:06+02:00</time>
      </trkpt>
      <trkpt lat="44.71882" lon="7.01579">
        <ele>2001</ele>
        <time>2021-07-15T19:45:11+02:00</time>
      </trkpt>
      <trkpt lat="44.719" lon="7.01553">
        <ele>2001</ele>
        <time>2021-07-15T19:45:16+02:00</time>
      </trkpt>
      <trkpt lat="44.71925" lon="7.01504">
        <ele>1996</ele>
        <time>2021-07-15T19:45:21+02:00</time>
      </trkpt>
      <trkpt lat="44.71945" lon="7.01475">
        <ele>1999</ele>
        <time>2021-07-15T19:45:26+02:00</time>
      </trkpt>
      <trkpt lat="44.71983" lon="7.01449">
        <ele>1994</ele>
        <time>2021-07-15T19:45:31+02:00</time>
      </trkpt>
      <trkpt lat="44.72042" lon="7.01428">
        <ele>1989</ele>
        <time>2021-07-15T19:45:36+02:00</time>
      </trkpt>
      <trkpt lat="44.72087" lon="7.01381">
        <ele>1985</ele>
        <time>2021-07-15T19:45:41+02:00</time>
      </trkpt>
      <trkpt lat="44.72118" lon="7.01363">
        <ele>1985</ele>
        <time>2021-07-15T19:45:46+02:00</time>
      </trkpt>
      <trkpt lat="44.72136" lon="7.01344">
        <ele>1984</ele>
        <time>2021-07-15T19:45:51+02:00</time>
      </trkpt>
      <trkpt lat="44.72157" lon="7.01326">
        <ele>1983</ele>
        <time>2021-07-15T19:45:56+02:00</time>
      </trkpt>
      <trkpt lat="44.72177" lon="7.013">
        <ele>1983</ele>
        <time>2021-07-15T19:46:01+02:00</time>
      </trkpt>
      <trkpt lat="44.72211" lon="7.01295">
        <ele>1984</ele>
        <time>2021-07-15T19:46:06+02:00</time>
      </trkpt>
      <trkpt lat="44.72256" lon="7.01256">
        <ele>1980</ele>
        <time>2021-07-15T19:46:11+02:00</time>
      </trkpt>
      <trkpt lat="44.72313" lon="7.01193">
        <ele>1977</ele>
        <time>2021-07-15T19:46:16+02:00</time>
      </trkpt>
      <trkpt lat="44.72335" lon="7.01172">
        <ele>1974</ele>
        <time>2021-07-15T19:46:21+02:00</time>
      </trkpt>
      <trkpt lat="44.72353" lon="7.01164">
        <ele>1981</ele>
        <time>2021-07-15T19:46:26+02:00</time>
      </trkpt>
      <trkpt lat="44.72364" lon="7.01123">
        <ele>1979</ele>
        <time>2021-07-15T19:46:31+02:00</time>
      </trkpt>
      <trkpt lat="44.72396" lon="7.01034">
        <ele>1978</ele>
        <time>2021-07-15T19:46:36+02:00</time>
      </trkpt>
      <trkpt lat="44.72421" lon="7.00963">
        <ele>1970</ele>
        <time>2021-07-15T19:46:41+02:00</time>
      </trkpt>
      <trkpt lat="44.7245" lon="7.00911">
        <ele>1973</ele>
        <time>2021-07-15T19:46:46+02:00</time>
      </trkpt>
      <trkpt lat="44.72479" lon="7.00849">
        <ele>1973</ele>
        <time>2021-07-15T19:46:51+02:00</time>
      </trkpt>
      <trkpt lat="44.72475" lon="7.00802">
        <ele>1969</ele>
        <time>2021-07-15T19:46:56+02:00</time>
      </trkpt>
      <trkpt lat="44.72489" lon="7.00783">
        <ele>1963</ele>
        <time>2021-07-15T19:47:01+02:00</time>
      </trkpt>
      <trkpt lat="44.72511" lon="7.00783">
        <ele>1962</ele>
        <time>2021-07-15T19:47:06+02:00</time>
      </trkpt>
      <trkpt lat="44.72518" lon="7.00765">
        <ele>1960</ele>
        <time>2021-07-15T19:47:11+02:00</time>
      </trkpt>
      <trkpt lat="44.72534" lon="7.00731">
        <ele>1956</ele>
        <time>2021-07-15T19:47:16+02:00</time>
      </trkpt>
      <trkpt lat="44.72552" lon="7.00723">
        <ele>1957</ele>
        <time>2021-07-15T19:47:21+02:00</time>
      </trkpt>
      <trkpt lat="44.72581" lon="7.00718">
        <ele>1960</ele>
        <time>2021-07-15T19:47:26+02:00</time>
      </trkpt>
      <trkpt lat="44.72603" lon="7.00718">
        <ele>1963</ele>
        <time>2021-07-15T19:47:31+02:00</time>
      </trkpt>
      <trkpt lat="44.72612" lon="7.00666">
        <ele>1949</ele>
        <time>2021-07-15T19:47:36+02:00</time>
      </trkpt>
      <trkpt lat="44.72628" lon="7.0065">
        <ele>1948</ele>
        <time>2021-07-15T19:47:41+02:00</time>
      </trkpt>
      <trkpt lat="44.7264" lon="7.00637">
        <ele>1946</ele>
        <time>2021-07-15T19:47:46+02:00</time>
      </trkpt>
      <trkpt lat="44.72657" lon="7.00619">
        <ele>1944</ele>
        <time>2021-07-15T19:47:51+02:00</time>
      </trkpt>
      <trkpt lat="44.72696" lon="7.00637">
        <ele>1952</ele>
        <time>2021-07-15T19:47:56+02:00</time>
      </trkpt>
      <trkpt lat="44.72719" lon="7.00603">
        <ele>1947</ele>
        <time>2021-07-15T19:48:01+02:00</time>
      </trkpt>
      <trkpt lat="44.72737" lon="7.0059">
        <ele>1945</ele>
        <time>2021-07-15T19:48:06+02:00</time>
      </trkpt>
      <trkpt lat="44.72754" lon="7.00572">
        <ele>1943</ele>
        <time>2021-07-15T19:48:11+02:00</time>
      </trkpt>
      <trkpt lat="44.72764" lon="7.00561">
        <ele>1944</ele>
        <time>2021-07-15T19:48:16+02:00</time>
      </trkpt>
      <trkpt lat="44.72885" lon="7.00402">
        <ele>1929</ele>
        <time>2021-07-15T19:48:21+02:00</time>
      </trkpt>
      <trkpt lat="44.72913" lon="7.00355">
        <ele>1923</ele>
        <time>2021-07-15T19:48:26+02:00</time>
      </trkpt>
      <trkpt lat="44.72913" lon="7.00345">
        <ele>1920</ele>
        <time>2021-07-15T19:48:31+02:00</time>
      </trkpt>
      <trkpt lat="44.72906" lon="7.00329">
        <ele>1915</ele>
        <time>2021-07-15T19:48:36+02:00</time>
      </trkpt>
      <trkpt lat="44.72905" lon="7.00303">
        <ele>1911</ele>
        <time>2021-07-15T19:48:41+02:00</time>
      </trkpt>
      <trkpt lat="44.72926" lon="7.00256">
        <ele>1904</ele>
        <time>2021-07-15T19:48:46+02:00</time>
      </trkpt>
      <trkpt lat="44.72933" lon="7.00243">
        <ele>1903</ele>
        <time>2021-07-15T19:48:51+02:00</time>
      </trkpt>
      <trkpt lat="44.72928" lon="7.00207">
        <ele>1902</ele>
        <time>2021-07-15T19:48:56+02:00</time>
      </trkpt>
      <trkpt lat="44.7296" lon="7.00162">
        <ele>1896</ele>
        <time>2021-07-15T19:49:01+02:00</time>
      </trkpt>
      <trkpt lat="44.72973" lon="7.0012">
        <ele>1901</ele>
        <time>2021-07-15T19:49:06+02:00</time>
      </trkpt>
      <trkpt lat="44.72998" lon="7.001">
        <ele>1899</ele>
        <time>2021-07-15T19:49:11+02:00</time>
      </trkpt>
      <trkpt lat="44.73019" lon="7.00089">
        <ele>1896</ele>
        <time>2021-07-15T19:49:16+02:00</time>
      </trkpt>
      <trkpt lat="44.73034" lon="7.00071">
        <ele>1895</ele>
        <time>2021-07-15T19:49:21+02:00</time>
      </trkpt>
      <trkpt lat="44.73052" lon="7.00045">
        <ele>1895</ele>
        <time>2021-07-15T19:49:26+02:00</time>
      </trkpt>
      <trkpt lat="44.73064" lon="7.00003">
        <ele>1899</ele>
        <time>2021-07-15T19:49:31+02:00</time>
      </trkpt>
      <trkpt lat="44.73084" lon="6.99985">
        <ele>1898</ele>
        <time>2021-07-15T19:49:36+02:00</time>
      </trkpt>
      <trkpt lat="44.73104" lon="6.99961">
        <ele>1899</ele>
        <time>2021-07-15T19:49:41+02:00</time>
      </trkpt>
      <trkpt lat="44.73133" lon="6.99959">
        <ele>1895</ele>
        <time>2021-07-15T19:49:46+02:00</time>
      </trkpt>
      <trkpt lat="44.73152" lon="6.99938">
        <ele>1894</ele>
        <time>2021-07-15T19:49:51+02:00</time>
      </trkpt>
      <trkpt lat="44.73169" lon="6.99932">
        <ele>1891</ele>
        <time>2021-07-15T19:49:56+02:00</time>
      </trkpt>
      <trkpt lat="44.73199" lon="6.99905">
        <ele>1883</ele>
        <time>2021-07-15T19:50:01+02:00</time>
      </trkpt>
      <trkpt lat="44.73243" lon="6.99912">
        <ele>1868</ele>
        <time>2021-07-15T19:50:06+02:00</time>
      </trkpt>
      <trkpt lat="44.73253" lon="6.99912">
        <ele>1865</ele>
        <time>2021-07-15T19:50:11+02:00</time>
      </trkpt>
      <trkpt lat="44.73262" lon="6.99904">
        <ele>1864</ele>
        <time>2021-07-15T19:50:16+02:00</time>
      </trkpt>
      <trkpt lat="44.73262" lon="6.9988">
        <ele>1870</ele>
        <time>2021-07-15T19:50:21+02:00</time>
      </trkpt>
      <trkpt lat="44.73305" lon="6.99885">
        <ele>1857</ele>
        <time>2021-07-15T19:50:26+02:00</time>
      </trkpt>
      <trkpt lat="44.73321" lon="6.99885">
        <ele>1853</ele>
        <time>2021-07-15T19:50:31+02:00</time>
      </trkpt>
      <trkpt lat="44.73327" lon="6.99878">
        <ele>1854</ele>
        <time>2021-07-15T19:50:36+02:00</time>
      </trkpt>
      <trkpt lat="44.73361" lon="6.99818">
        <ele>1856</ele>
        <time>2021-07-15T19:50:41+02:00</time>
      </trkpt>
      <trkpt lat="44.73402" lon="6.99784">
        <ele>1841</ele>
        <time>2021-07-15T19:50:46+02:00</time>
      </trkpt>
      <trkpt lat="44.73414" lon="6.99783">
        <ele>1833</ele>
        <time>2021-07-15T19:50:51+02:00</time>
      </trkpt>
      <trkpt lat="44.73441" lon="6.99786">
        <ele>1824</ele>
        <time>2021-07-15T19:50:56+02:00</time>
      </trkpt>
      <trkpt lat="44.73494" lon="6.99772">
        <ele>1811</ele>
        <time>2021-07-15T19:51:01+02:00</time>
      </trkpt>
      <trkpt lat="44.73521" lon="6.99742">
        <ele>1809</ele>
        <time>2021-07-15T19:51:06+02:00</time>
      </trkpt>
      <trkpt lat="44.73542" lon="6.99711">
        <ele>1808</ele>
        <time>2021-07-15T19:51:11+02:00</time>
      </trkpt>
      <trkpt lat="44.73569" lon="6.99698">
        <ele>1804</ele>
        <time>2021-07-15T19:51:16+02:00</time>
      </trkpt>
      <trkpt lat="44.73614" lon="6.99674">
        <ele>1797</ele>
        <time>2021-07-15T19:51:21+02:00</time>
      </trkpt>
    </trkseg>
  </trk>
</gpx>